KSRR

Sierra Blanca Regional Airport

Ruidoso, New Mexico, USA
METAR KSRR 151435Z AUTO 33006KT 18/13 A3033 RMK AO2
Observed Flight Rules
Aug-15 @ 14:35 UTC (26 minutes ago)
Wind
330° at 6 knots
Temperatures Readings
Current 18°C / 64°F
Dewpoint 13°C / 55°F
Humidity 73%
Altimeter 30.33" Hg
Pressure 1027 hPa
Elevation 2076
METAR KSRR 151435Z AUTO 33006KT 18/13 A3033 RMK AO2
Observed Flight Rules
Aug-15 @ 14:35 UTC
(26 minutes ago)
Wind
330° at 6 knots
Temperature Dewpoint
18°C / 64°F 13°C / 55°F
Humidity Altimeter Pressure
73% 30.33" Hg 1027 hPa